createdAt,value
2024-02-12T00:00:47.892Z,99184.45
2024-02-12T00:02:49.922Z,99185.27
2024-02-12T00:04:52.650Z,99178.10
2024-02-12T00:06:57.444Z,99169.98
2024-02-12T00:08:59.401Z,99165.02
2024-02-12T00:11:01.206Z,99162.95
2024-02-12T00:13:03.228Z,99155.81
2024-02-12T00:15:08.036Z,99156.59
2024-02-12T00:17:11.601Z,99159.73
2024-02-12T00:19:14.318Z,99156.80
2024-02-12T00:21:16.267Z,99154.84
2024-02-12T00:23:17.919Z,99156.53
2024-02-12T00:25:20.166Z,99156.21
2024-02-12T00:27:21.863Z,99162.02
2024-02-12T00:29:24.179Z,99163.34
2024-02-12T00:31:29.319Z,99162.99
2024-02-12T00:33:31.069Z,99159.89
2024-02-12T00:35:33.463Z,99160.46
2024-02-12T00:37:36.223Z,99158.21
2024-02-12T00:39:38.886Z,99152.37
2024-02-12T00:41:41.134Z,99151.60
2024-02-12T00:43:44.067Z,99152.98
2024-02-12T00:45:46.063Z,99157.63
2024-02-12T00:47:48.088Z,99156.50
2024-02-12T00:49:49.970Z,99157.62
2024-02-12T00:51:52.758Z,99150.02
2024-02-12T00:53:56.804Z,99146.32
2024-02-12T00:55:59.325Z,99147.71
2024-02-12T00:58:03.496Z,99142.47
2024-02-12T01:00:14.190Z,99136.73
2024-02-12T01:02:16.310Z,99134.73
2024-02-12T01:04:18.039Z,99128.53
2024-02-12T01:06:19.816Z,99125.92
2024-02-12T01:08:23.099Z,99124.58
2024-02-12T01:10:25.086Z,99120.34
2024-02-12T01:12:26.747Z,99115.21
2024-02-12T01:14:30.065Z,99107.52
2024-02-12T01:16:35.571Z,99102.94
2024-02-12T01:18:37.699Z,99096.92
2024-02-12T01:20:39.998Z,99101.66
2024-02-12T01:22:42.223Z,99097.81
2024-02-12T01:24:43.963Z,99094.69
2024-02-12T01:26:47.089Z,99093.36
2024-02-12T01:28:48.966Z,99091.45
2024-02-12T01:30:50.696Z,99087.34
2024-02-12T01:32:53.945Z,99091.49
2024-02-12T01:34:56.817Z,99087.10
2024-02-12T01:36:59.113Z,99089.59
2024-02-12T01:39:00.872Z,99090.42
2024-02-12T01:41:03.557Z,99095.77
2024-02-12T01:43:06.189Z,99097.09
2024-02-12T01:45:17.330Z,99095.36
2024-02-12T01:47:25.071Z,99095.19
2024-02-12T01:49:27.649Z,99099.70
2024-02-12T01:51:29.513Z,99099.61
2024-02-12T01:53:31.692Z,99103.55
2024-02-12T01:55:35.429Z,99100.55
2024-02-12T01:57:37.144Z,99105.58
2024-02-12T01:59:41.201Z,99102.59
2024-02-12T02:01:42.926Z,99102.39
2024-02-12T02:03:46.733Z,99103.20
2024-02-12T02:05:48.666Z,99102.52
2024-02-12T02:07:54.260Z,99099.81
2024-02-12T02:09:58.956Z,99106.48
2024-02-12T02:12:00.742Z,99118.54
2024-02-12T02:14:04.212Z,99118.20
2024-02-12T02:16:06.867Z,99113.33
2024-02-12T02:18:08.585Z,99111.14
2024-02-12T02:20:12.164Z,99118.15
2024-02-12T02:22:17.333Z,99115.64
2024-02-12T02:24:19.637Z,99112.98
2024-02-12T02:26:21.570Z,99117.58
2024-02-12T02:28:26.858Z,99114.00
2024-02-12T02:30:28.496Z,99119.48
2024-02-12T02:32:30.250Z,99112.10
2024-02-12T02:34:32.165Z,99115.00
2024-02-12T02:36:35.687Z,99115.73
2024-02-12T02:38:37.552Z,99118.77
2024-02-12T02:40:40.276Z,99124.51
2024-02-12T02:42:41.925Z,99125.04
2024-02-12T02:44:45.441Z,99121.41
2024-02-12T02:46:48.202Z,99126.33
2024-02-12T02:48:50.078Z,99128.36
2024-02-12T02:50:51.889Z,99130.86
2024-02-12T02:52:55.141Z,99130.65
2024-02-12T02:54:57.024Z,99131.02
2024-02-12T02:56:58.823Z,99132.88
2024-02-12T02:59:01.249Z,99129.17
2024-02-12T03:01:03.296Z,99124.44
2024-02-12T03:03:05.598Z,99119.02
2024-02-12T03:05:08.613Z,99113.98
2024-02-12T03:07:11.913Z,99110.87
2024-02-12T03:09:15.183Z,99108.30
2024-02-12T03:11:24.908Z,99113.83
2024-02-12T03:13:26.904Z,99112.00
2024-02-12T03:15:29.473Z,99106.69
2024-02-12T03:17:31.354Z,99097.46
2024-02-12T03:19:33.367Z,99096.57
2024-02-12T03:21:35.128Z,99103.80
2024-02-12T03:23:37.159Z,99102.92
2024-02-12T03:25:39.072Z,99101.27
2024-02-12T03:27:45.144Z,99101.98
2024-02-12T03:29:49.464Z,99098.78
2024-02-12T03:31:51.272Z,99100.55
2024-02-12T03:33:54.573Z,99100.81
2024-02-12T03:35:56.424Z,99101.09
2024-02-12T03:37:59.602Z,99103.44
2024-02-12T03:40:01.401Z,99101.36
2024-02-12T03:42:03.449Z,99104.81
2024-02-12T03:44:05.282Z,99106.02
2024-02-12T03:46:08.397Z,99098.33
2024-02-12T03:48:29.036Z,99094.38
2024-02-12T03:50:49.436Z,99091.77
2024-02-12T03:53:10.372Z,99097.66
2024-02-12T03:55:30.756Z,99098.30
2024-02-12T03:57:51.313Z,99094.45
2024-02-12T03:59:53.133Z,99086.02
2024-02-12T04:01:55.869Z,99084.27
2024-02-12T04:03:57.735Z,99085.13
2024-02-12T04:06:01.147Z,99085.06
2024-02-12T04:08:10.097Z,99083.13
2024-02-12T04:10:12.864Z,99080.28
2024-02-12T04:12:14.854Z,99077.48
2024-02-12T04:14:16.836Z,99077.33
2024-02-12T04:16:18.838Z,99080.11
2024-02-12T04:18:21.365Z,99079.66
2024-02-12T04:20:24.640Z,99081.34
2024-02-12T04:22:27.992Z,99082.20
2024-02-12T04:24:31.172Z,99086.51
2024-02-12T04:26:32.871Z,99091.23
2024-02-12T04:28:34.772Z,99083.55
2024-02-12T04:30:37.016Z,99083.23
2024-02-12T04:32:39.119Z,99083.13
2024-02-12T04:34:44.029Z,99080.55
2024-02-12T04:36:46.077Z,99080.27
2024-02-12T04:38:48.257Z,99085.41
2024-02-12T04:40:51.053Z,99092.19
2024-02-12T04:42:55.873Z,99095.30
2024-02-12T04:44:57.652Z,99097.35
2024-02-12T04:47:00.288Z,99097.80
2024-02-12T04:49:04.135Z,99093.35
2024-02-12T04:51:06.180Z,99087.64
2024-02-12T04:53:08.824Z,99084.46
2024-02-12T04:55:15.192Z,99086.36
2024-02-12T04:57:17.268Z,99088.39
2024-02-12T04:59:23.012Z,99092.39
2024-02-12T05:01:28.271Z,99100.94
2024-02-12T05:03:30.729Z,99098.31
2024-02-12T05:05:33.033Z,99090.73
2024-02-12T05:07:35.190Z,99082.59
2024-02-12T05:09:37.080Z,99079.45
2024-02-12T05:11:39.010Z,99088.83
2024-02-12T05:13:41.617Z,99087.29
2024-02-12T05:15:43.388Z,99088.07
2024-02-12T05:17:56.607Z,99094.66
2024-02-12T05:20:20.228Z,99092.95
2024-02-12T05:22:36.050Z,99099.13
2024-02-12T05:24:38.093Z,99106.63
2024-02-12T05:26:40.407Z,99110.31
2024-02-12T05:28:42.665Z,99110.77
2024-02-12T05:30:44.534Z,99109.10
2024-02-12T05:32:46.286Z,99109.77
2024-02-12T05:34:48.832Z,99109.89
2024-02-12T05:36:55.030Z,99113.77
2024-02-12T05:38:56.814Z,99117.16
2024-02-12T05:40:58.822Z,99119.16
2024-02-12T05:43:00.954Z,99124.73
2024-02-12T05:45:02.823Z,99128.83
2024-02-12T05:47:07.287Z,99130.79
2024-02-12T05:49:11.348Z,99132.94
2024-02-12T05:51:13.604Z,99133.60
2024-02-12T05:53:16.271Z,99137.83
2024-02-12T05:55:18.018Z,99138.64
2024-02-12T05:57:19.793Z,99134.17
2024-02-12T05:59:21.565Z,99136.40
2024-02-12T06:01:24.532Z,99136.16
2024-02-12T06:03:26.284Z,99129.14
2024-02-12T06:05:28.141Z,99123.55
2024-02-12T06:07:31.959Z,99118.10
2024-02-12T06:09:38.011Z,99119.61
2024-02-12T06:11:40.034Z,99122.80
2024-02-12T06:13:41.954Z,99115.66
2024-02-12T06:15:44.361Z,99111.37
2024-02-12T06:17:46.187Z,99110.73
2024-02-12T06:19:49.241Z,99109.83
2024-02-12T06:21:53.352Z,99109.91
2024-02-12T06:23:55.079Z,99111.60
2024-02-12T06:25:56.845Z,99113.83
2024-02-12T06:28:01.685Z,99112.45
2024-02-12T06:30:04.803Z,99111.20
2024-02-12T06:32:15.297Z,99108.95
2024-02-12T06:34:17.212Z,99107.60
2024-02-12T06:36:19.003Z,99102.90
2024-02-12T06:38:21.228Z,99100.60
2024-02-12T06:40:23.885Z,99103.55
2024-02-12T06:42:25.742Z,99103.83
2024-02-12T06:44:27.865Z,99106.68
2024-02-12T06:46:29.740Z,99103.48
2024-02-12T06:48:31.489Z,99102.09
2024-02-12T06:50:33.467Z,99099.58
2024-02-12T06:52:35.222Z,99107.07
2024-02-12T06:54:38.232Z,99106.92
2024-02-12T06:56:42.451Z,99103.59
2024-02-12T06:58:44.761Z,99105.38
2024-02-12T07:00:46.489Z,99107.70
2024-02-12T07:02:48.367Z,99113.36
2024-02-12T07:04:50.103Z,99119.50
2024-02-12T07:06:51.767Z,99112.94
2024-02-12T07:08:53.487Z,99111.80
2024-02-12T07:10:55.145Z,99112.52
2024-02-12T07:12:56.832Z,99108.97
2024-02-12T07:14:58.928Z,99108.52
2024-02-12T07:17:00.607Z,99111.64
2024-02-12T07:19:02.554Z,99111.80
2024-02-12T07:21:05.688Z,99111.54
2024-02-12T07:23:08.698Z,99112.09
2024-02-12T07:25:10.926Z,99111.71
2024-02-12T07:27:13.467Z,99114.54
2024-02-12T07:29:15.525Z,99107.39
2024-02-12T07:31:17.769Z,99111.90
2024-02-12T07:33:21.006Z,99117.11
2024-02-12T07:35:23.292Z,99117.61
2024-02-12T07:37:26.810Z,99122.67
2024-02-12T07:39:28.779Z,99130.27
2024-02-12T07:41:30.523Z,99129.41
2024-02-12T07:43:32.335Z,99133.34
2024-02-12T07:45:37.348Z,99128.95
2024-02-12T07:47:40.579Z,99127.25
2024-02-12T07:49:42.456Z,99126.16
2024-02-12T07:51:45.843Z,99128.63
2024-02-12T07:53:47.938Z,99128.70
2024-02-12T07:55:49.792Z,99130.56
2024-02-12T07:57:51.514Z,99125.65
2024-02-12T07:59:53.378Z,99125.98
2024-02-12T08:01:56.142Z,99119.07
2024-02-12T08:03:58.245Z,99113.89
2024-02-12T08:06:00.216Z,99113.86
2024-02-12T08:08:03.763Z,99114.27
2024-02-12T08:10:08.932Z,99110.73
2024-02-12T08:12:12.931Z,99105.50
2024-02-12T08:14:16.469Z,99105.11
2024-02-12T08:16:18.481Z,99110.00
2024-02-12T08:18:20.840Z,99111.50
2024-02-12T08:20:22.735Z,99114.98
2024-02-12T08:22:24.559Z,99117.44
2024-02-12T08:24:26.258Z,99120.69
2024-02-12T08:26:28.109Z,99119.88
2024-02-12T08:28:30.631Z,99118.84
2024-02-12T08:30:32.994Z,99116.02
2024-02-12T08:32:35.382Z,99113.80
2024-02-12T08:34:41.651Z,99120.88
2024-02-12T08:36:46.466Z,99124.21
2024-02-12T08:38:48.492Z,99127.58
2024-02-12T08:40:51.521Z,99127.27
2024-02-12T08:42:54.106Z,99126.27
2024-02-12T08:44:57.790Z,99127.06
2024-02-12T08:47:01.898Z,99132.24
2024-02-12T08:49:04.152Z,99133.29
2024-02-12T08:51:06.205Z,99132.58
2024-02-12T08:53:08.243Z,99132.85
2024-02-12T08:55:13.644Z,99134.86
2024-02-12T08:57:16.287Z,99141.00
2024-02-12T08:59:20.561Z,99135.61
2024-02-12T09:01:22.562Z,99132.98
2024-02-12T09:03:24.285Z,99136.61
2024-02-12T09:06:36.954Z,99134.65
2024-02-12T09:08:43.026Z,99133.48
2024-02-12T09:10:44.707Z,99136.45
2024-02-12T09:12:52.943Z,99131.92
2024-02-12T09:14:55.831Z,99128.42
2024-02-12T09:16:57.521Z,99127.15
2024-02-12T09:18:59.616Z,99125.69
2024-02-12T09:21:02.604Z,99127.36
2024-02-12T09:23:05.877Z,99127.08
2024-02-12T09:25:13.088Z,99126.16
2024-02-12T09:27:15.222Z,99124.75
2024-02-12T09:29:17.677Z,99121.41
2024-02-12T09:31:19.511Z,99124.14
2024-02-12T09:33:21.739Z,99124.39
2024-02-12T09:35:24.087Z,99123.08
2024-02-12T09:37:31.001Z,99123.08
2024-02-12T09:39:32.837Z,99125.39
2024-02-12T09:41:39.209Z,99123.44
2024-02-12T09:43:45.500Z,99121.52
2024-02-12T09:45:47.310Z,99129.91
2024-02-12T09:47:50.335Z,99130.77
2024-02-12T09:49:54.363Z,99130.89
2024-02-12T09:51:58.044Z,99128.52
2024-02-12T09:54:02.674Z,99123.70
2024-02-12T09:56:06.186Z,99125.29
2024-02-12T09:58:08.587Z,99121.81
2024-02-12T10:00:11.779Z,99122.44
2024-02-12T10:02:14.878Z,99123.80
2024-02-12T10:04:16.720Z,99126.99
2024-02-12T10:06:18.664Z,99124.27
2024-02-12T10:08:22.938Z,99120.90
2024-02-12T10:10:25.571Z,99118.96
2024-02-12T10:12:27.727Z,99115.59
2024-02-12T10:14:32.317Z,99116.55
2024-02-12T10:16:34.118Z,99114.57
2024-02-12T10:18:35.866Z,99115.42
2024-02-12T10:20:40.846Z,99110.23
2024-02-12T10:22:42.838Z,99110.23
2024-02-12T10:24:48.999Z,99109.98
2024-02-12T10:26:52.170Z,99108.66
2024-02-12T10:28:59.595Z,99105.08
2024-02-12T10:31:01.735Z,99106.73
2024-02-12T10:33:08.028Z,99109.11
2024-02-12T10:35:13.453Z,99106.24
2024-02-12T10:37:19.750Z,99106.36
2024-02-12T10:39:22.894Z,99106.06
2024-02-12T10:41:35.069Z,99103.17
2024-02-12T10:43:41.671Z,99098.29
2024-02-12T10:45:48.984Z,99096.56
2024-02-12T10:47:52.085Z,99091.71
2024-02-12T10:49:54.209Z,99093.88
2024-02-12T10:51:58.527Z,99089.39
2024-02-12T10:54:00.609Z,99084.01
2024-02-12T10:56:02.722Z,99085.65
2024-02-12T10:58:05.867Z,99080.02
2024-02-12T11:00:09.583Z,99079.17
2024-02-12T11:02:13.831Z,99077.69
2024-02-12T11:04:19.693Z,99079.26
2024-02-12T11:06:21.580Z,99075.14
2024-02-12T11:08:24.921Z,99069.52
2024-02-12T11:10:33.537Z,99069.04
2024-02-12T11:12:41.960Z,99068.85
2024-02-12T11:14:47.375Z,99063.61
2024-02-12T11:16:52.225Z,99066.95
2024-02-12T11:18:56.339Z,99066.80
2024-02-12T11:21:01.338Z,99069.41
2024-02-12T11:23:06.629Z,99065.75
2024-02-12T11:25:17.898Z,99065.73
2024-02-12T11:27:25.385Z,99064.05
2024-02-12T11:29:27.305Z,99068.53
2024-02-12T11:31:30.976Z,99069.11
2024-02-12T11:33:33.256Z,99071.27
2024-02-12T11:35:36.276Z,99068.90
2024-02-12T11:37:38.683Z,99063.32
2024-02-12T11:39:40.503Z,99059.38
2024-02-12T11:41:42.436Z,99059.11
2024-02-12T11:43:48.091Z,99059.20
2024-02-12T11:46:00.577Z,99063.39
2024-02-12T11:48:09.486Z,99073.05
2024-02-12T11:50:28.595Z,99065.57
2024-02-12T11:52:34.065Z,99069.04
2024-02-12T11:54:36.041Z,99069.38
2024-02-12T11:56:38.336Z,99069.36
2024-02-12T11:58:40.304Z,99069.14
2024-02-12T12:00:42.299Z,99066.98
2024-02-12T12:02:49.026Z,99066.17
2024-02-12T12:04:51.349Z,99063.61
2024-02-12T12:06:53.080Z,99063.88
2024-02-12T12:08:54.824Z,99058.23
2024-02-12T12:11:09.934Z,99056.77
2024-02-12T12:13:12.740Z,99056.23
2024-02-12T12:15:15.666Z,99051.41
2024-02-12T12:17:30.465Z,99048.79
2024-02-12T12:19:36.697Z,99048.73
2024-02-12T12:21:38.682Z,99046.80
2024-02-12T12:23:40.931Z,99047.27
2024-02-12T12:25:42.786Z,99044.99
2024-02-12T12:27:44.469Z,99048.14
2024-02-12T12:29:49.436Z,99048.96
2024-02-12T12:31:51.403Z,99039.02
2024-02-12T12:33:53.232Z,99037.20
2024-02-12T12:35:56.066Z,99033.60
2024-02-12T12:37:59.783Z,99035.36
2024-02-12T12:40:01.596Z,99033.52
2024-02-12T12:42:03.562Z,99030.02
2024-02-12T12:44:05.980Z,99028.72
2024-02-12T12:46:07.844Z,99032.60
2024-02-12T12:48:14.103Z,99034.69
2024-02-12T12:50:16.223Z,99037.48
2024-02-12T12:52:18.321Z,99039.41
2024-02-12T12:54:23.787Z,99042.04
2024-02-12T12:56:25.932Z,99048.98
2024-02-12T12:58:27.927Z,99052.33
2024-02-12T13:00:37.201Z,99056.67
2024-02-12T13:02:38.989Z,99055.14
2024-02-12T13:04:40.930Z,99057.39
2024-02-12T13:06:44.322Z,99057.88
2024-02-12T13:08:46.785Z,99054.98
2024-02-12T13:10:51.467Z,99058.29
2024-02-12T13:12:55.424Z,99061.10
2024-02-12T13:14:59.383Z,99061.14
2024-02-12T13:17:01.568Z,99065.17
2024-02-12T13:19:05.570Z,99062.20
2024-02-12T13:21:08.197Z,99068.60
2024-02-12T13:23:10.468Z,99068.77
2024-02-12T13:25:14.827Z,99071.63
2024-02-12T13:27:16.720Z,99067.90
2024-02-12T13:29:24.641Z,99062.31
2024-02-12T13:31:29.773Z,99060.77
2024-02-12T13:33:32.061Z,99055.30
2024-02-12T13:35:39.097Z,99048.07
2024-02-12T13:37:41.239Z,99044.27
2024-02-12T13:39:43.165Z,99043.91
2024-02-12T13:41:46.778Z,99043.34
2024-02-12T13:43:51.526Z,99045.21
2024-02-12T13:45:53.688Z,99049.30
2024-02-12T13:47:56.868Z,99049.23
2024-02-12T13:49:59.078Z,99050.05
2024-02-12T13:52:04.157Z,99046.48
2024-02-12T13:54:09.308Z,99049.11
2024-02-12T13:56:11.505Z,99049.27
2024-02-12T13:58:13.490Z,99048.73
2024-02-12T14:00:43.837Z,99050.45
2024-02-12T14:02:51.441Z,99053.00
2024-02-12T14:04:55.169Z,99050.77
2024-02-12T14:06:58.282Z,99051.36
2024-02-12T14:09:00.318Z,99053.73
2024-02-12T14:11:02.152Z,99050.20
2024-02-12T14:13:04.745Z,99051.34
2024-02-12T14:15:13.552Z,99051.48
2024-02-12T14:17:18.292Z,99048.98
2024-02-12T14:19:21.361Z,99051.39
2024-02-12T14:21:23.167Z,99049.02
2024-02-12T14:23:25.137Z,99052.95
2024-02-12T14:25:31.409Z,99052.17
2024-02-12T14:27:33.172Z,99051.02
2024-02-12T14:29:35.050Z,99053.02
2024-02-12T14:32:34.064Z,99055.34
2024-02-12T14:33:59.170Z,99057.02
2024-02-12T14:36:02.023Z,99060.33
2024-02-12T14:38:04.621Z,99063.72
2024-02-12T14:40:07.532Z,99064.74
2024-02-12T14:42:11.002Z,99062.17
2024-02-12T14:44:13.381Z,99063.77
2024-02-12T14:46:15.273Z,99064.73
2024-02-12T14:48:19.338Z,99063.75
2024-02-12T14:50:28.177Z,99064.89
2024-02-12T14:52:30.530Z,99068.70
2024-02-12T14:54:34.879Z,99070.75
2024-02-12T14:56:36.673Z,99067.45
2024-02-12T14:58:38.395Z,99071.79
2024-02-12T15:00:40.698Z,99073.73
2024-02-12T15:02:43.312Z,99072.84
2024-02-12T15:04:45.442Z,99072.59
2024-02-12T15:06:48.545Z,99075.33
2024-02-12T15:08:50.402Z,99072.88
2024-02-12T15:10:53.383Z,99074.35
2024-02-12T15:12:57.749Z,99077.95
2024-02-12T15:14:59.408Z,99080.11
2024-02-12T15:17:01.790Z,99084.23
2024-02-12T15:19:04.796Z,99083.14
2024-02-12T15:21:07.765Z,99085.88
2024-02-12T15:23:15.263Z,99086.21
2024-02-12T15:25:21.605Z,99088.59
2024-02-12T15:27:24.924Z,99088.74
2024-02-12T15:29:26.680Z,99087.16
2024-02-12T15:31:28.581Z,99084.69
2024-02-12T15:33:32.742Z,99086.85
2024-02-12T15:35:34.602Z,99088.61
2024-02-12T15:37:36.579Z,99088.69
2024-02-12T15:39:38.899Z,99090.89
2024-02-12T15:41:42.121Z,99093.38
2024-02-12T15:43:43.959Z,99095.17
2024-02-12T15:45:45.953Z,99100.33
2024-02-12T15:47:48.245Z,99102.09
2024-02-12T15:49:50.423Z,99106.84
2024-02-12T15:51:55.140Z,99105.73
2024-02-12T15:53:57.174Z,99108.01
2024-02-12T15:55:59.166Z,99109.61
2024-02-12T15:58:01.036Z,99116.11
2024-02-12T16:00:03.797Z,99115.86
2024-02-12T16:02:17.210Z,99118.23
2024-02-12T16:04:20.054Z,99121.75
2024-02-12T16:06:22.896Z,99123.05
2024-02-12T16:08:24.805Z,99126.05
2024-02-12T16:10:27.636Z,99128.45
2024-02-12T16:12:29.559Z,99129.53
2024-02-12T16:14:31.324Z,99129.06
2024-02-12T16:16:33.458Z,99126.43
2024-02-12T16:18:38.693Z,99128.20
2024-02-12T16:20:42.355Z,99126.27
2024-02-12T16:22:45.206Z,99125.63
2024-02-12T16:24:46.938Z,99124.07
2024-02-12T16:26:48.787Z,99124.46
2024-02-12T16:28:50.585Z,99124.34
2024-02-12T16:30:54.464Z,99121.19
2024-02-12T16:32:56.742Z,99120.00
2024-02-12T16:34:58.775Z,99120.45
2024-02-12T16:37:00.616Z,99114.45
2024-02-12T16:39:02.880Z,99115.19
2024-02-12T16:41:05.522Z,99115.46
2024-02-12T16:43:09.831Z,99115.66
2024-02-12T16:45:12.189Z,99114.77
2024-02-12T16:47:14.097Z,99115.14
2024-02-12T16:49:15.986Z,99118.98
2024-02-12T16:51:18.296Z,99122.58
2024-02-12T16:53:20.461Z,99124.65
2024-02-12T16:55:22.471Z,99124.27
2024-02-12T16:57:24.245Z,99130.70
2024-02-12T16:59:26.139Z,99126.56
2024-02-12T17:01:28.017Z,99127.50
2024-02-12T17:03:30.922Z,99134.63
2024-02-12T17:05:36.175Z,99132.05
2024-02-12T17:07:48.728Z,99140.23
2024-02-12T17:09:56.636Z,99144.33
2024-02-12T17:11:58.403Z,99145.34
2024-02-12T17:14:00.405Z,99142.11
2024-02-12T17:16:02.439Z,99137.70
2024-02-12T17:18:06.508Z,99140.16
2024-02-12T17:20:10.132Z,99141.39
2024-02-12T17:22:12.800Z,99137.66
2024-02-12T17:24:15.024Z,99138.48
2024-02-12T17:26:16.901Z,99133.67
2024-02-12T17:28:20.782Z,99135.02
2024-02-12T17:30:23.938Z,99134.95
2024-02-12T17:32:27.393Z,99132.19
2024-02-12T17:34:31.263Z,99133.34
2024-02-12T17:36:33.072Z,99137.02
2024-02-12T17:38:38.354Z,99135.78
2024-02-12T17:40:40.449Z,99137.54
2024-02-12T17:42:42.228Z,99137.17
2024-02-12T17:44:45.470Z,99133.52
2024-02-12T17:46:47.640Z,99129.20
2024-02-12T17:48:52.609Z,99129.15
2024-02-12T17:50:56.237Z,99128.05
2024-02-12T17:52:58.125Z,99128.98
2024-02-12T17:55:00.328Z,99129.41
2024-02-12T17:57:02.546Z,99131.24
2024-02-12T17:59:04.754Z,99133.66
2024-02-12T18:01:08.705Z,99130.71
2024-02-12T18:03:10.830Z,99134.23
2024-02-12T18:05:14.262Z,99138.30
2024-02-12T18:07:16.990Z,99138.49
2024-02-12T18:09:18.695Z,99141.71
2024-02-12T18:11:20.474Z,99139.87
2024-02-12T18:13:22.436Z,99145.36
2024-02-12T18:15:27.196Z,99145.79
2024-02-12T18:17:29.354Z,99145.17
2024-02-12T18:19:32.353Z,99152.73
2024-02-12T18:21:34.390Z,99154.50
2024-02-12T18:23:36.424Z,99155.06
2024-02-12T18:25:38.374Z,99160.66
2024-02-12T18:27:40.360Z,99162.24
2024-02-12T18:29:43.517Z,99160.61
2024-02-12T18:31:45.979Z,99162.77
2024-02-12T18:33:49.544Z,99164.20
2024-02-12T18:35:53.637Z,99160.35
2024-02-12T18:37:57.103Z,99164.77
2024-02-12T18:39:59.227Z,99168.16
2024-02-12T18:42:04.509Z,99170.66
2024-02-12T18:44:07.795Z,99171.67
2024-02-12T18:46:10.328Z,99171.95
2024-02-12T18:48:12.742Z,99176.16
2024-02-12T18:50:15.923Z,99179.04
2024-02-12T18:52:21.751Z,99180.52
2024-02-12T18:54:23.518Z,99182.66
2024-02-12T18:56:26.727Z,99182.98
2024-02-12T18:58:29.057Z,99182.95
2024-02-12T19:00:30.772Z,99183.55
2024-02-12T19:02:35.190Z,99181.46
2024-02-12T19:04:38.005Z,99183.10
2024-02-12T19:06:49.607Z,99183.15
2024-02-12T19:08:53.915Z,99181.37
2024-02-12T19:10:57.829Z,99182.72
2024-02-12T19:13:01.654Z,99179.46
2024-02-12T19:15:12.884Z,99179.21
2024-02-12T19:17:15.921Z,99176.80
2024-02-12T19:19:21.004Z,99179.47
2024-02-12T19:21:23.662Z,99181.88
2024-02-12T19:23:27.888Z,99181.55
2024-02-12T19:25:29.552Z,99180.16
2024-02-12T19:27:37.826Z,99181.44
2024-02-12T19:29:40.066Z,99178.60
2024-02-12T19:31:41.803Z,99178.48
2024-02-12T19:33:44.016Z,99176.67
2024-02-12T19:35:47.784Z,99181.41
2024-02-12T19:37:49.694Z,99184.00
2024-02-12T19:39:52.719Z,99182.46
2024-02-12T19:41:54.425Z,99184.51
2024-02-12T19:43:57.501Z,99188.69
2024-02-12T19:45:59.644Z,99193.35
2024-02-12T19:48:02.289Z,99197.69
2024-02-12T19:50:05.276Z,99199.17
2024-02-12T19:52:07.102Z,99196.44
2024-02-12T19:54:09.773Z,99194.89
2024-02-12T19:56:12.086Z,99194.52
2024-02-12T19:58:14.358Z,99195.58
2024-02-12T20:00:18.309Z,99191.05
2024-02-12T20:02:20.099Z,99191.09
2024-02-12T20:04:22.838Z,99193.63
2024-02-12T20:06:24.861Z,99196.56
2024-02-12T20:08:26.781Z,99196.37
2024-02-12T20:10:29.924Z,99196.04
2024-02-12T20:12:32.605Z,99192.05
2024-02-12T20:14:34.362Z,99189.10
2024-02-12T20:16:38.046Z,99186.23
2024-02-12T20:18:46.253Z,99184.52
2024-02-12T20:20:48.744Z,99182.42
2024-02-12T20:22:55.972Z,99181.39
2024-02-12T20:24:58.286Z,99185.69
2024-02-12T20:27:05.549Z,99190.84
2024-02-12T20:29:08.072Z,99191.75
2024-02-12T20:31:12.148Z,99192.73
2024-02-12T20:33:15.224Z,99194.87
2024-02-12T20:35:19.078Z,99195.13
2024-02-12T20:37:21.250Z,99194.60
2024-02-12T20:39:24.960Z,99192.88
2024-02-12T20:41:26.702Z,99191.41
2024-02-12T20:43:29.253Z,99190.10
2024-02-12T20:45:31.141Z,99190.91
2024-02-12T20:47:33.008Z,99199.63
2024-02-12T20:49:37.908Z,99198.29
2024-02-12T20:51:39.864Z,99190.43
2024-02-12T20:53:42.408Z,99189.98
2024-02-12T20:55:46.043Z,99190.59
2024-02-12T20:57:47.764Z,99194.02
2024-02-12T20:59:51.753Z,99191.98
2024-02-12T21:01:53.706Z,99190.48
2024-02-12T21:03:55.744Z,99193.16
2024-02-12T21:05:58.985Z,99194.19
2024-02-12T21:08:01.378Z,99190.71
2024-02-12T21:10:08.607Z,99192.02
2024-02-12T21:12:10.408Z,99194.20
2024-02-12T21:14:12.926Z,99193.17
2024-02-12T21:16:17.192Z,99190.51
2024-02-12T21:18:20.145Z,99184.02
2024-02-12T21:23:05.116Z,99178.45
2024-02-12T21:25:07.415Z,99183.03
2024-02-12T21:27:14.765Z,99180.70
2024-02-12T21:29:16.656Z,99179.10
2024-02-12T21:31:22.360Z,99183.15
2024-02-12T21:33:24.115Z,99183.70
2024-02-12T21:35:26.561Z,99185.90
2024-02-12T21:37:28.577Z,99190.73
2024-02-12T21:39:37.493Z,99192.16
2024-02-12T21:41:57.012Z,99194.09
2024-02-12T21:43:59.141Z,99192.68
2024-02-12T21:46:01.382Z,99190.40
2024-02-12T21:48:04.883Z,99193.95
2024-02-12T21:50:12.088Z,99195.30
2024-02-12T21:52:14.706Z,99196.65
2024-02-12T21:54:16.387Z,99193.05
2024-02-12T21:56:18.243Z,99196.73
2024-02-12T21:58:20.100Z,99197.56
2024-02-12T22:00:22.954Z,99207.86
2024-02-12T22:02:24.797Z,99206.31
2024-02-12T22:04:27.011Z,99202.30
2024-02-12T22:06:28.842Z,99200.18
2024-02-12T22:08:32.756Z,99195.49
2024-02-12T22:10:34.537Z,99192.77
2024-02-12T22:12:36.510Z,99191.02
2024-02-12T22:14:39.070Z,99199.92
2024-02-12T22:16:42.548Z,99204.10
2024-02-12T22:18:45.168Z,99210.73
2024-02-12T22:20:48.479Z,99208.20
2024-02-12T22:22:51.714Z,99210.21
2024-02-12T22:24:53.363Z,99210.55
2024-02-12T22:26:55.555Z,99210.61
2024-02-12T22:28:58.171Z,99208.49
2024-02-12T22:31:00.660Z,99212.91
2024-02-12T22:33:06.694Z,99215.39
2024-02-12T22:35:09.374Z,99212.84
2024-02-12T22:37:14.094Z,99209.48
2024-02-12T22:39:15.904Z,99210.36
2024-02-12T22:41:18.073Z,99209.30
2024-02-12T22:43:20.476Z,99212.02
2024-02-12T22:45:27.110Z,99216.99
2024-02-12T22:47:29.083Z,99215.04
2024-02-12T22:49:31.037Z,99211.75
2024-02-12T22:51:32.940Z,99206.28
2024-02-12T22:53:35.351Z,99206.98
2024-02-12T22:55:39.649Z,99209.07
2024-02-12T22:57:45.237Z,99210.66
2024-02-12T22:59:47.218Z,99207.19
2024-02-12T23:01:49.065Z,99204.33
2024-02-12T23:03:50.833Z,99205.39
2024-02-12T23:05:52.708Z,99202.66
2024-02-12T23:07:56.560Z,99200.48
2024-02-12T23:09:58.369Z,99203.35
2024-02-12T23:12:00.517Z,99206.66
2024-02-12T23:14:02.197Z,99210.71
2024-02-12T23:16:04.674Z,99215.05
2024-02-12T23:18:09.443Z,99215.48
2024-02-12T23:20:13.325Z,99213.16
2024-02-12T23:22:15.481Z,99210.88
2024-02-12T23:24:17.293Z,99212.99
2024-02-12T23:26:19.184Z,99218.81
2024-02-12T23:28:20.994Z,99218.48
2024-02-12T23:30:23.309Z,99215.29
2024-02-12T23:32:25.108Z,99210.14
2024-02-12T23:34:28.360Z,99205.11
2024-02-12T23:36:31.287Z,99204.83
2024-02-12T23:38:36.839Z,99204.98
2024-02-12T23:40:38.727Z,99203.80
2024-02-12T23:42:43.511Z,99203.01
2024-02-12T23:44:45.683Z,99195.40
2024-02-12T23:46:48.971Z,99195.52
2024-02-12T23:48:50.806Z,99197.23
2024-02-12T23:50:52.786Z,99205.23
2024-02-12T23:52:55.140Z,99207.81
2024-02-12T23:54:57.011Z,99209.66
2024-02-12T23:56:58.679Z,99204.96
2024-02-12T23:59:00.817Z,99207.41
